sensor_id;sensor_type;location;lat;lon;timestamp;temperature;humidity
4635;DHT22;2330;48.158;11.816;2023-03-01T00:01:13;0.80;98.50
4635;DHT22;2330;48.158;11.816;2023-03-01T00:03:40;0.70;98.50
4635;DHT22;2330;48.158;11.816;2023-03-01T00:06:06;0.70;98.50
4635;DHT22;2330;48.158;11.816;2023-03-01T00:08:34;0.70;98.50
4635;DHT22;2330;48.158;11.816;2023-03-01T00:11:12;0.70;98.50
4635;DHT22;2330;48.158;11.816;2023-03-01T00:13:39;0.70;98.50
4635;DHT22;2330;48.158;11.816;2023-03-01T00:16:08;0.70;98.50
4635;DHT22;2330;48.158;11.816;2023-03-01T00:18:35;0.70;98.50
4635;DHT22;2330;48.158;11.816;2023-03-01T00:21:02;0.70;98.50
4635;DHT22;2330;48.158;11.816;2023-03-01T00:23:29;0.70;98.50
4635;DHT22;2330;48.158;11.816;2023-03-01T00:25:56;0.70;98.50
4635;DHT22;2330;48.158;11.816;2023-03-01T00:28:23;0.60;98.50
4635;DHT22;2330;48.158;11.816;2023-03-01T00:30:49;0.70;98.50
4635;DHT22;2330;48.158;11.816;2023-03-01T00:33:16;0.60;98.50
4635;DHT22;2330;48.158;11.816;2023-03-01T00:35:43;0.70;98.50
4635;DHT22;2330;48.158;11.816;2023-03-01T00:38:10;0.60;98.50
4635;DHT22;2330;48.158;11.816;2023-03-01T00:40:37;0.60;98.50
4635;DHT22;2330;48.158;11.816;2023-03-01T00:43:04;0.60;98.50
4635;DHT22;2330;48.158;11.816;2023-03-01T00:45:30;0.60;98.50
4635;DHT22;2330;48.158;11.816;2023-03-01T00:47:58;0.60;98.50
4635;DHT22;2330;48.158;11.816;2023-03-01T00:50:25;0.60;98.50
4635;DHT22;2330;48.158;11.816;2023-03-01T00:52:55;0.60;98.50
4635;DHT22;2330;48.158;11.816;2023-03-01T00:55:22;0.60;98.50
4635;DHT22;2330;48.158;11.816;2023-03-01T00:57:49;0.60;98.50
4635;DHT22;2330;48.158;11.816;2023-03-01T01:00:17;0.60;98.50
4635;DHT22;2330;48.158;11.816;2023-03-01T01:02:44;0.60;98.50
4635;DHT22;2330;48.158;11.816;2023-03-01T01:05:13;0.60;98.50
4635;DHT22;2330;48.158;11.816;2023-03-01T01:07:40;0.60;98.50
4635;DHT22;2330;48.158;11.816;2023-03-01T01:10:07;0.60;98.50
4635;DHT22;2330;48.158;11.816;2023-03-01T01:12:34;0.60;98.50
4635;DHT22;2330;48.158;11.816;2023-03-01T01:15:01;0.60;98.50
4635;DHT22;2330;48.158;11.816;2023-03-01T01:17:28;0.60;98.50
4635;DHT22;2330;48.158;11.816;2023-03-01T01:19:55;0.60;98.50
4635;DHT22;2330;48.158;11.816;2023-03-01T01:22:22;0.50;98.50
4635;DHT22;2330;48.158;11.816;2023-03-01T01:24:48;0.50;98.50
4635;DHT22;2330;48.158;11.816;2023-03-01T01:27:15;0.50;98.50
4635;DHT22;2330;48.158;11.816;2023-03-01T01:29:42;0.50;98.50
4635;DHT22;2330;48.158;11.816;2023-03-01T01:32:08;0.50;98.50
4635;DHT22;2330;48.158;11.816;2023-03-01T01:34:35;0.50;98.50
4635;DHT22;2330;48.158;11.816;2023-03-01T01:37:02;0.50;98.50
4635;DHT22;2330;48.158;11.816;2023-03-01T01:39:29;0.50;98.50
4635;DHT22;2330;48.158;11.816;2023-03-01T01:41:56;0.50;98.50
4635;DHT22;2330;48.158;11.816;2023-03-01T01:44:25;0.50;98.50
4635;DHT22;2330;48.158;11.816;2023-03-01T01:47:02;0.50;98.50
4635;DHT22;2330;48.158;11.816;2023-03-01T01:49:37;0.50;98.50
4635;DHT22;2330;48.158;11.816;2023-03-01T01:52:22;0.50;98.50
4635;DHT22;2330;48.158;11.816;2023-03-01T01:54:57;0.50;98.50
4635;DHT22;2330;48.158;11.816;2023-03-01T01:57:32;0.50;98.50
4635;DHT22;2330;48.158;11.816;2023-03-01T02:00:10;0.50;98.50
4635;DHT22;2330;48.158;11.816;2023-03-01T02:05:33;0.50;98.50
4635;DHT22;2330;48.158;11.816;2023-03-01T02:08:02;0.40;98.50
4635;DHT22;2330;48.158;11.816;2023-03-01T02:10:29;0.40;98.50
4635;DHT22;2330;48.158;11.816;2023-03-01T02:12:56;0.40;98.50
4635;DHT22;2330;48.158;11.816;2023-03-01T02:15:24;0.40;98.50
4635;DHT22;2330;48.158;11.816;2023-03-01T02:17:54;0.40;98.50
4635;DHT22;2330;48.158;11.816;2023-03-01T02:22:54;0.40;98.50
4635;DHT22;2330;48.158;11.816;2023-03-01T02:25:26;0.40;98.50
4635;DHT22;2330;48.158;11.816;2023-03-01T02:30:48;0.30;98.50
4635;DHT22;2330;48.158;11.816;2023-03-01T02:33:37;0.30;98.50
4635;DHT22;2330;48.158;11.816;2023-03-01T02:36:08;0.30;98.50
4635;DHT22;2330;48.158;11.816;2023-03-01T02:38:36;0.30;98.50
4635;DHT22;2330;48.158;11.816;2023-03-01T02:41:03;0.30;98.50
4635;DHT22;2330;48.158;11.816;2023-03-01T02:43:33;0.30;98.50
4635;DHT22;2330;48.158;11.816;2023-03-01T02:46:08;0.30;98.50
4635;DHT22;2330;48.158;11.816;2023-03-01T02:48:45;0.30;98.50
4635;DHT22;2330;48.158;11.816;2023-03-01T02:54:28;0.30;98.50
4635;DHT22;2330;48.158;11.816;2023-03-01T02:56:56;0.30;98.50
4635;DHT22;2330;48.158;11.816;2023-03-01T02:59:28;0.30;98.50
4635;DHT22;2330;48.158;11.816;2023-03-01T03:01:56;0.30;98.50
4635;DHT22;2330;48.158;11.816;2023-03-01T03:04:23;0.20;98.50
4635;DHT22;2330;48.158;11.816;2023-03-01T03:06:50;0.20;98.50
4635;DHT22;2330;48.158;11.816;2023-03-01T03:09:17;0.20;98.50
4635;DHT22;2330;48.158;11.816;2023-03-01T03:11:44;0.20;98.50
4635;DHT22;2330;48.158;11.816;2023-03-01T03:14:14;0.20;98.50
4635;DHT22;2330;48.158;11.816;2023-03-01T03:16:42;0.20;98.50
4635;DHT22;2330;48.158;11.816;2023-03-01T03:19:10;0.20;98.50
4635;DHT22;2330;48.158;11.816;2023-03-01T03:21:37;0.20;98.50
4635;DHT22;2330;48.158;11.816;2023-03-01T03:24:04;0.20;98.50
4635;DHT22;2330;48.158;11.816;2023-03-01T03:26:32;0.10;98.50
4635;DHT22;2330;48.158;11.816;2023-03-01T03:28:59;0.10;98.50
4635;DHT22;2330;48.158;11.816;2023-03-01T03:31:25;0.10;98.50
4635;DHT22;2330;48.158;11.816;2023-03-01T03:33:53;0.10;98.50
4635;DHT22;2330;48.158;11.816;2023-03-01T03:36:22;0.10;98.50
4635;DHT22;2330;48.158;11.816;2023-03-01T03:38:50;0.00;98.50
4635;DHT22;2330;48.158;11.816;2023-03-01T03:41:17;0.00;98.50
4635;DHT22;2330;48.158;11.816;2023-03-01T03:43:44;0.00;98.50
4635;DHT22;2330;48.158;11.816;2023-03-01T03:46:11;0.00;98.50
4635;DHT22;2330;48.158;11.816;2023-03-01T03:48:43;0.00;98.50
4635;DHT22;2330;48.158;11.816;2023-03-01T03:51:13;-0.10;98.50
4635;DHT22;2330;48.158;11.816;2023-03-01T03:53:40;-0.10;98.50
4635;DHT22;2330;48.158;11.816;2023-03-01T03:56:08;-0.20;98.50
4635;DHT22;2330;48.158;11.816;2023-03-01T03:58:35;-0.20;98.50
4635;DHT22;2330;48.158;11.816;2023-03-01T04:01:02;-0.20;98.50
4635;DHT22;2330;48.158;11.816;2023-03-01T04:03:31;-0.20;98.50
4635;DHT22;2330;48.158;11.816;2023-03-01T04:05:59;-0.20;98.50
4635;DHT22;2330;48.158;11.816;2023-03-01T04:08:27;-0.20;98.50
4635;DHT22;2330;48.158;11.816;2023-03-01T04:10:59;-0.20;98.50
4635;DHT22;2330;48.158;11.816;2023-03-01T04:13:47;-0.20;98.50
4635;DHT22;2330;48.158;11.816;2023-03-01T04:16:13;-0.20;98.50
4635;DHT22;2330;48.158;11.816;2023-03-01T04:18:40;-0.30;98.50
4635;DHT22;2330;48.158;11.816;2023-03-01T04:21:07;-0.30;98.50
4635;DHT22;2330;48.158;11.816;2023-03-01T04:23:33;-0.30;98.50
4635;DHT22;2330;48.158;11.816;2023-03-01T04:26:01;-0.30;98.50
4635;DHT22;2330;48.158;11.816;2023-03-01T04:28:34;-0.30;98.50
4635;DHT22;2330;48.158;11.816;2023-03-01T04:31:06;-0.30;98.50
4635;DHT22;2330;48.158;11.816;2023-03-01T04:33:48;-0.40;98.50
4635;DHT22;2330;48.158;11.816;2023-03-01T04:36:16;-0.40;98.50
4635;DHT22;2330;48.158;11.816;2023-03-01T04:38:44;-0.50;98.50
4635;DHT22;2330;48.158;11.816;2023-03-01T04:41:19;-0.50;98.50
4635;DHT22;2330;48.158;11.816;2023-03-01T04:43:47;-0.70;98.50
4635;DHT22;2330;48.158;11.816;2023-03-01T04:46:17;-0.70;98.50
4635;DHT22;2330;48.158;11.816;2023-03-01T04:48:46;-0.80;98.50
4635;DHT22;2330;48.158;11.816;2023-03-01T04:51:14;-0.70;98.50
4635;DHT22;2330;48.158;11.816;2023-03-01T04:53:41;-0.80;98.50
4635;DHT22;2330;48.158;11.816;2023-03-01T04:56:08;-0.80;98.50
4635;DHT22;2330;48.158;11.816;2023-03-01T04:58:36;-0.90;98.50
4635;DHT22;2330;48.158;11.816;2023-03-01T05:01:12;-0.90;98.50
4635;DHT22;2330;48.158;11.816;2023-03-01T05:03:47;-1.00;98.50
4635;DHT22;2330;48.158;11.816;2023-03-01T05:06:15;-0.90;98.50
4635;DHT22;2330;48.158;11.816;2023-03-01T05:08:42;-0.90;98.50
4635;DHT22;2330;48.158;11.816;2023-03-01T05:11:10;-0.90;98.50
4635;DHT22;2330;48.158;11.816;2023-03-01T05:13:38;-0.80;98.50
4635;DHT22;2330;48.158;11.816;2023-03-01T05:16:06;-0.90;98.50
4635;DHT22;2330;48.158;11.816;2023-03-01T05:18:39;-0.90;98.50
4635;DHT22;2330;48.158;11.816;2023-03-01T05:21:09;-0.90;98.50
4635;DHT22;2330;48.158;11.816;2023-03-01T05:23:37;-1.00;98.50
4635;DHT22;2330;48.158;11.816;2023-03-01T05:26:05;-0.90;98.50
4635;DHT22;2330;48.158;11.816;2023-03-01T05:28:37;-0.90;98.50
4635;DHT22;2330;48.158;11.816;2023-03-01T05:31:04;-0.90;98.50
4635;DHT22;2330;48.158;11.816;2023-03-01T05:33:40;-0.90;98.50
4635;DHT22;2330;48.158;11.816;2023-03-01T05:36:08;-1.00;98.50
4635;DHT22;2330;48.158;11.816;2023-03-01T05:38:36;-1.00;98.50
4635;DHT22;2330;48.158;11.816;2023-03-01T05:41:03;-1.00;98.50
4635;DHT22;2330;48.158;11.816;2023-03-01T05:43:31;-1.00;98.50
4635;DHT22;2330;48.158;11.816;2023-03-01T05:46:00;-1.00;98.50
4635;DHT22;2330;48.158;11.816;2023-03-01T05:48:27;-0.90;98.50
4635;DHT22;2330;48.158;11.816;2023-03-01T05:50:53;-0.90;98.50
4635;DHT22;2330;48.158;11.816;2023-03-01T05:53:20;-0.90;98.50
4635;DHT22;2330;48.158;11.816;2023-03-01T05:55:48;-1.00;98.50
4635;DHT22;2330;48.158;11.816;2023-03-01T05:58:18;-1.00;98.50
4635;DHT22;2330;48.158;11.816;2023-03-01T06:00:47;-1.00;98.50
4635;DHT22;2330;48.158;11.816;2023-03-01T06:03:16;-1.00;98.50
4635;DHT22;2330;48.158;11.816;2023-03-01T06:05:43;-1.00;98.50
4635;DHT22;2330;48.158;11.816;2023-03-01T06:08:11;-1.00;98.50
4635;DHT22;2330;48.158;11.816;2023-03-01T06:10:38;-1.00;98.50
4635;DHT22;2330;48.158;11.816;2023-03-01T06:13:05;-1.00;98.50
4635;DHT22;2330;48.158;11.816;2023-03-01T06:15:32;-1.00;98.50
4635;DHT22;2330;48.158;11.816;2023-03-01T06:17:58;-0.90;98.50
4635;DHT22;2330;48.158;11.816;2023-03-01T06:20:28;-0.90;98.50
4635;DHT22;2330;48.158;11.816;2023-03-01T06:22:56;-0.90;98.50
4635;DHT22;2330;48.158;11.816;2023-03-01T06:25:25;-0.90;98.50
4635;DHT22;2330;48.158;11.816;2023-03-01T06:27:52;-0.90;98.50
4635;DHT22;2330;48.158;11.816;2023-03-01T06:30:22;-0.80;98.50
4635;DHT22;2330;48.158;11.816;2023-03-01T06:32:50;-0.80;98.50
4635;DHT22;2330;48.158;11.816;2023-03-01T06:35:18;-0.80;98.50
4635;DHT22;2330;48.158;11.816;2023-03-01T06:37:47;-0.80;98.50
4635;DHT22;2330;48.158;11.816;2023-03-01T06:40:15;-0.80;98.50
4635;DHT22;2330;48.158;11.816;2023-03-01T06:42:43;-0.80;98.50
4635;DHT22;2330;48.158;11.816;2023-03-01T06:45:11;-0.80;98.50
4635;DHT22;2330;48.158;11.816;2023-03-01T06:47:38;-0.80;98.50
4635;DHT22;2330;48.158;11.816;2023-03-01T06:50:05;-0.60;98.50
4635;DHT22;2330;48.158;11.816;2023-03-01T06:52:32;-0.60;98.50
4635;DHT22;2330;48.158;11.816;2023-03-01T06:54:59;-0.60;98.50
4635;DHT22;2330;48.158;11.816;2023-03-01T06:57:26;-0.60;98.50
4635;DHT22;2330;48.158;11.816;2023-03-01T06:59:53;-0.50;98.50
4635;DHT22;2330;48.158;11.816;2023-03-01T07:02:20;-0.60;98.50
4635;DHT22;2330;48.158;11.816;2023-03-01T07:04:52;-0.60;98.50
4635;DHT22;2330;48.158;11.816;2023-03-01T07:07:18;-0.60;98.50
4635;DHT22;2330;48.158;11.816;2023-03-01T07:09:46;-0.60;98.50
4635;DHT22;2330;48.158;11.816;2023-03-01T07:12:13;-0.60;98.50
4635;DHT22;2330;48.158;11.816;2023-03-01T07:14:40;-0.60;98.50
4635;DHT22;2330;48.158;11.816;2023-03-01T07:17:07;-0.60;98.50
4635;DHT22;2330;48.158;11.816;2023-03-01T07:19:33;-0.60;98.50
4635;DHT22;2330;48.158;11.816;2023-03-01T07:22:00;-0.60;98.50
4635;DHT22;2330;48.158;11.816;2023-03-01T07:24:27;-0.50;98.50
4635;DHT22;2330;48.158;11.816;2023-03-01T07:26:54;-0.40;98.50
4635;DHT22;2330;48.158;11.816;2023-03-01T07:29:21;-0.30;98.50
4635;DHT22;2330;48.158;11.816;2023-03-01T07:31:48;-0.20;98.50
4635;DHT22;2330;48.158;11.816;2023-03-01T07:34:15;-0.20;98.50
4635;DHT22;2330;48.158;11.816;2023-03-01T07:36:41;-0.20;98.50
4635;DHT22;2330;48.158;11.816;2023-03-01T07:39:10;-0.40;98.50
4635;DHT22;2330;48.158;11.816;2023-03-01T07:41:37;-0.50;98.50
4635;DHT22;2330;48.158;11.816;2023-03-01T07:44:04;-0.50;98.50
4635;DHT22;2330;48.158;11.816;2023-03-01T07:46:31;-0.40;98.50
4635;DHT22;2330;48.158;11.816;2023-03-01T07:48:58;-0.30;98.50
4635;DHT22;2330;48.158;11.816;2023-03-01T07:51:25;-0.40;98.50
4635;DHT22;2330;48.158;11.816;2023-03-01T07:53:52;-0.30;98.50
4635;DHT22;2330;48.158;11.816;2023-03-01T07:56:19;-0.20;98.50
4635;DHT22;2330;48.158;11.816;2023-03-01T07:58:46;-0.20;98.50
4635;DHT22;2330;48.158;11.816;2023-03-01T08:01:18;-0.10;98.50
4635;DHT22;2330;48.158;11.816;2023-03-01T08:03:45;0.00;98.50
4635;DHT22;2330;48.158;11.816;2023-03-01T08:06:14;0.10;98.50
4635;DHT22;2330;48.158;11.816;2023-03-01T08:08:41;0.10;98.50
4635;DHT22;2330;48.158;11.816;2023-03-01T08:11:11;-0.10;98.50
4635;DHT22;2330;48.158;11.816;2023-03-01T08:13:38;0.00;98.50
4635;DHT22;2330;48.158;11.816;2023-03-01T08:16:09;-0.10;98.50
4635;DHT22;2330;48.158;11.816;2023-03-01T08:18:36;0.00;98.50
4635;DHT22;2330;48.158;11.816;2023-03-01T08:21:11;0.10;98.50
4635;DHT22;2330;48.158;11.816;2023-03-01T08:23:40;0.00;98.50
4635;DHT22;2330;48.158;11.816;2023-03-01T08:26:18;0.00;98.50
4635;DHT22;2330;48.158;11.816;2023-03-01T08:28:46;0.00;98.50
4635;DHT22;2330;48.158;11.816;2023-03-01T08:33:49;0.10;98.50
4635;DHT22;2330;48.158;11.816;2023-03-01T08:36:34;0.00;98.50
4635;DHT22;2330;48.158;11.816;2023-03-01T08:39:01;0.20;98.50
4635;DHT22;2330;48.158;11.816;2023-03-01T08:41:28;0.30;98.50
4635;DHT22;2330;48.158;11.816;2023-03-01T08:43:55;0.50;98.50
4635;DHT22;2330;48.158;11.816;2023-03-01T08:46:30;0.70;98.50
4635;DHT22;2330;48.158;11.816;2023-03-01T08:48:57;0.80;98.50
4635;DHT22;2330;48.158;11.816;2023-03-01T08:51:25;0.60;98.50
4635;DHT22;2330;48.158;11.816;2023-03-01T08:53:52;0.80;98.50
4635;DHT22;2330;48.158;11.816;2023-03-01T08:56:19;0.80;98.50
4635;DHT22;2330;48.158;11.816;2023-03-01T08:58:47;1.00;98.50
4635;DHT22;2330;48.158;11.816;2023-03-01T09:01:17;1.00;98.50
4635;DHT22;2330;48.158;11.816;2023-03-01T09:03:45;1.10;98.50
4635;DHT22;2330;48.158;11.816;2023-03-01T09:06:12;1.00;98.50
4635;DHT22;2330;48.158;11.816;2023-03-01T09:08:42;0.90;98.50
4635;DHT22;2330;48.158;11.816;2023-03-01T09:11:11;0.90;98.50
4635;DHT22;2330;48.158;11.816;2023-03-01T09:13:38;1.00;98.50
4635;DHT22;2330;48.158;11.816;2023-03-01T09:16:07;1.10;98.50
4635;DHT22;2330;48.158;11.816;2023-03-01T09:18:35;1.20;98.50
4635;DHT22;2330;48.158;11.816;2023-03-01T09:21:28;1.10;98.50
4635;DHT22;2330;48.158;11.816;2023-03-01T09:24:15;1.30;98.50
4635;DHT22;2330;48.158;11.816;2023-03-01T09:26:42;1.40;98.50
4635;DHT22;2330;48.158;11.816;2023-03-01T09:29:09;1.20;98.50
4635;DHT22;2330;48.158;11.816;2023-03-01T09:31:36;1.10;98.50
4635;DHT22;2330;48.158;11.816;2023-03-01T09:34:04;1.20;98.50
4635;DHT22;2330;48.158;11.816;2023-03-01T09:36:31;1.30;98.50
4635;DHT22;2330;48.158;11.816;2023-03-01T09:38:58;1.50;98.50
4635;DHT22;2330;48.158;11.816;2023-03-01T09:41:38;1.60;98.50
4635;DHT22;2330;48.158;11.816;2023-03-01T09:47:03;1.40;98.50
4635;DHT22;2330;48.158;11.816;2023-03-01T09:49:33;1.50;98.50
4635;DHT22;2330;48.158;11.816;2023-03-01T09:52:17;1.60;98.50
4635;DHT22;2330;48.158;11.816;2023-03-01T09:54:46;1.60;98.50
4635;DHT22;2330;48.158;11.816;2023-03-01T09:57:26;1.60;98.50
4635;DHT22;2330;48.158;11.816;2023-03-01T10:02:49;1.90;98.50
4635;DHT22;2330;48.158;11.816;2023-03-01T10:05:34;1.80;98.50
4635;DHT22;2330;48.158;11.816;2023-03-01T10:10:48;2.20;98.50
4635;DHT22;2330;48.158;11.816;2023-03-01T10:13:21;2.10;98.50
4635;DHT22;2330;48.158;11.816;2023-03-01T10:15:54;1.80;98.50
4635;DHT22;2330;48.158;11.816;2023-03-01T10:18:29;1.90;98.50
4635;DHT22;2330;48.158;11.816;2023-03-01T10:21:00;2.00;98.50
4635;DHT22;2330;48.158;11.816;2023-03-01T10:23:30;2.00;98.50
4635;DHT22;2330;48.158;11.816;2023-03-01T10:31:49;2.60;98.50
4635;DHT22;2330;48.158;11.816;2023-03-01T10:34:25;2.40;98.50
4635;DHT22;2330;48.158;11.816;2023-03-01T10:36:58;2.00;98.50
4635;DHT22;2330;48.158;11.816;2023-03-01T10:39:27;2.40;98.50
4635;DHT22;2330;48.158;11.816;2023-03-01T10:42:00;2.80;98.50
4635;DHT22;2330;48.158;11.816;2023-03-01T10:44:43;2.90;98.50
4635;DHT22;2330;48.158;11.816;2023-03-01T10:47:14;3.20;98.50
4635;DHT22;2330;48.158;11.816;2023-03-01T10:50:21;3.50;98.50
4635;DHT22;2330;48.158;11.816;2023-03-01T10:53:16;3.90;98.50
4635;DHT22;2330;48.158;11.816;2023-03-01T10:55:43;3.10;98.50
4635;DHT22;2330;48.158;11.816;2023-03-01T10:58:21;3.10;98.50
4635;DHT22;2330;48.158;11.816;2023-03-01T11:00:59;3.60;98.50
4635;DHT22;2330;48.158;11.816;2023-03-01T11:03:29;4.00;98.50
4635;DHT22;2330;48.158;11.816;2023-03-01T11:08:34;3.70;98.50
4635;DHT22;2330;48.158;11.816;2023-03-01T11:13:33;4.50;97.50
4635;DHT22;2330;48.158;11.816;2023-03-01T11:16:10;4.80;97.50
4635;DHT22;2330;48.158;11.816;2023-03-01T11:18:39;4.90;96.30
4635;DHT22;2330;48.158;11.816;2023-03-01T11:21:15;4.90;96.20
4635;DHT22;2330;48.158;11.816;2023-03-01T11:23:43;5.00;96.40
4635;DHT22;2330;48.158;11.816;2023-03-01T11:26:12;5.00;96.70
4635;DHT22;2330;48.158;11.816;2023-03-01T11:28:41;5.20;95.80
4635;DHT22;2330;48.158;11.816;2023-03-01T11:31:11;5.40;96.70
4635;DHT22;2330;48.158;11.816;2023-03-01T11:34:06;5.40;94.70
4635;DHT22;2330;48.158;11.816;2023-03-01T11:36:52;5.50;95.10
4635;DHT22;2330;48.158;11.816;2023-03-01T11:39:40;5.30;95.20
4635;DHT22;2330;48.158;11.816;2023-03-01T11:42:17;5.30;95.10
4635;DHT22;2330;48.158;11.816;2023-03-01T11:44:48;5.30;94.90
4635;DHT22;2330;48.158;11.816;2023-03-01T11:50:38;5.20;94.20
4635;DHT22;2330;48.158;11.816;2023-03-01T11:53:29;5.20;95.20
4635;DHT22;2330;48.158;11.816;2023-03-01T11:56:13;5.40;95.70
4635;DHT22;2330;48.158;11.816;2023-03-01T12:01:51;5.20;96.00
4635;DHT22;2330;48.158;11.816;2023-03-01T12:07:00;5.70;95.20
4635;DHT22;2330;48.158;11.816;2023-03-01T12:21:35;5.00;97.20
4635;DHT22;2330;48.158;11.816;2023-03-01T12:44:03;6.20;93.40
4635;DHT22;2330;48.158;11.816;2023-03-01T12:49:33;6.50;93.70
4635;DHT22;2330;48.158;11.816;2023-03-01T12:52:14;5.80;94.70
4635;DHT22;2330;48.158;11.816;2023-03-01T12:54:43;5.90;95.00
4635;DHT22;2330;48.158;11.816;2023-03-01T12:57:31;6.00;94.20
4635;DHT22;2330;48.158;11.816;2023-03-01T13:00:37;6.50;93.60
4635;DHT22;2330;48.158;11.816;2023-03-01T13:08:56;6.70;92.30
4635;DHT22;2330;48.158;11.816;2023-03-01T13:11:27;6.80;92.70
4635;DHT22;2330;48.158;11.816;2023-03-01T13:16:52;7.10;92.70
4635;DHT22;2330;48.158;11.816;2023-03-01T13:19:23;6.60;92.90
4635;DHT22;2330;48.158;11.816;2023-03-01T13:21:53;7.10;93.60
4635;DHT22;2330;48.158;11.816;2023-03-01T13:29:49;7.10;90.80
4635;DHT22;2330;48.158;11.816;2023-03-01T13:32:27;6.80;92.80
4635;DHT22;2330;48.158;11.816;2023-03-01T13:37:43;7.30;92.60
4635;DHT22;2330;48.158;11.816;2023-03-01T13:42:48;7.90;91.70
4635;DHT22;2330;48.158;11.816;2023-03-01T13:48:21;7.80;91.90
4635;DHT22;2330;48.158;11.816;2023-03-01T13:50:52;7.80;91.40
4635;DHT22;2330;48.158;11.816;2023-03-01T13:53:22;7.50;92.30
4635;DHT22;2330;48.158;11.816;2023-03-01T13:55:55;7.80;92.30
4635;DHT22;2330;48.158;11.816;2023-03-01T13:58:27;8.00;91.00
4635;DHT22;2330;48.158;11.816;2023-03-01T14:01:06;8.10;90.30
4635;DHT22;2330;48.158;11.816;2023-03-01T14:03:41;8.20;90.60
4635;DHT22;2330;48.158;11.816;2023-03-01T14:06:13;8.40;90.00
4635;DHT22;2330;48.158;11.816;2023-03-01T14:08:47;8.00;91.10
4635;DHT22;2330;48.158;11.816;2023-03-01T14:11:29;8.20;90.70
4635;DHT22;2330;48.158;11.816;2023-03-01T14:14:09;8.40;89.80
4635;DHT22;2330;48.158;11.816;2023-03-01T14:19:33;8.10;90.70
4635;DHT22;2330;48.158;11.816;2023-03-01T14:22:22;8.20;91.20
4635;DHT22;2330;48.158;11.816;2023-03-01T14:25:01;8.10;92.10
4635;DHT22;2330;48.158;11.816;2023-03-01T14:27:37;8.00;91.70
4635;DHT22;2330;48.158;11.816;2023-03-01T14:30:20;7.90;91.30
4635;DHT22;2330;48.158;11.816;2023-03-01T14:33:00;8.00;91.70
4635;DHT22;2330;48.158;11.816;2023-03-01T14:35:33;7.80;92.20
4635;DHT22;2330;48.158;11.816;2023-03-01T14:38:01;7.70;92.80
4635;DHT22;2330;48.158;11.816;2023-03-01T14:40:35;7.80;91.90
4635;DHT22;2330;48.158;11.816;2023-03-01T14:43:09;8.00;91.80
4635;DHT22;2330;48.158;11.816;2023-03-01T14:45:37;8.00;91.50
4635;DHT22;2330;48.158;11.816;2023-03-01T14:48:05;7.80;91.20
4635;DHT22;2330;48.158;11.816;2023-03-01T14:50:41;7.40;92.60
4635;DHT22;2330;48.158;11.816;2023-03-01T14:53:20;7.40;93.20
4635;DHT22;2330;48.158;11.816;2023-03-01T14:55:52;7.60;92.80
4635;DHT22;2330;48.158;11.816;2023-03-01T14:58:22;7.40;92.20
4635;DHT22;2330;48.158;11.816;2023-03-01T15:01:04;7.20;92.90
4635;DHT22;2330;48.158;11.816;2023-03-01T15:03:35;7.30;94.00
4635;DHT22;2330;48.158;11.816;2023-03-01T15:06:06;7.40;93.20
4635;DHT22;2330;48.158;11.816;2023-03-01T15:08:34;7.40;93.40
4635;DHT22;2330;48.158;11.816;2023-03-01T15:13:40;7.10;93.70
4635;DHT22;2330;48.158;11.816;2023-03-01T15:16:13;6.90;94.60
4635;DHT22;2330;48.158;11.816;2023-03-01T15:18:54;7.10;94.30
4635;DHT22;2330;48.158;11.816;2023-03-01T15:21:27;7.30;94.10
4635;DHT22;2330;48.158;11.816;2023-03-01T15:24:06;7.30;94.30
4635;DHT22;2330;48.158;11.816;2023-03-01T15:26:42;7.20;94.30
4635;DHT22;2330;48.158;11.816;2023-03-01T15:29:17;7.30;95.40
4635;DHT22;2330;48.158;11.816;2023-03-01T15:31:55;7.30;95.00
4635;DHT22;2330;48.158;11.816;2023-03-01T15:34:34;7.30;94.80
4635;DHT22;2330;48.158;11.816;2023-03-01T15:37:06;7.30;95.30
4635;DHT22;2330;48.158;11.816;2023-03-01T15:39:38;7.40;95.60
4635;DHT22;2330;48.158;11.816;2023-03-01T15:42:35;7.30;95.90
4635;DHT22;2330;48.158;11.816;2023-03-01T15:45:19;7.20;95.90
4635;DHT22;2330;48.158;11.816;2023-03-01T15:47:49;7.20;95.90
4635;DHT22;2330;48.158;11.816;2023-03-01T15:50:23;7.10;96.60
4635;DHT22;2330;48.158;11.816;2023-03-01T15:52:51;7.00;96.60
4635;DHT22;2330;48.158;11.816;2023-03-01T15:55:27;7.00;97.30
4635;DHT22;2330;48.158;11.816;2023-03-01T15:58:04;6.90;97.50
4635;DHT22;2330;48.158;11.816;2023-03-01T16:00:33;6.80;97.10
4635;DHT22;2330;48.158;11.816;2023-03-01T16:03:00;6.60;97.30
4635;DHT22;2330;48.158;11.816;2023-03-01T16:05:29;6.50;98.00
4635;DHT22;2330;48.158;11.816;2023-03-01T16:08:01;6.50;98.30
4635;DHT22;2330;48.158;11.816;2023-03-01T16:10:28;6.40;98.50
4635;DHT22;2330;48.158;11.816;2023-03-01T16:12:56;6.30;98.50
4635;DHT22;2330;48.158;11.816;2023-03-01T16:15:29;6.20;98.50
4635;DHT22;2330;48.158;11.816;2023-03-01T16:17:58;6.10;98.50
4635;DHT22;2330;48.158;11.816;2023-03-01T16:20:26;6.00;98.50
4635;DHT22;2330;48.158;11.816;2023-03-01T16:23:07;5.90;98.50
4635;DHT22;2330;48.158;11.816;2023-03-01T16:25:35;5.80;98.50
4635;DHT22;2330;48.158;11.816;2023-03-01T16:28:02;5.70;98.50
4635;DHT22;2330;48.158;11.816;2023-03-01T16:30:31;5.70;98.50
4635;DHT22;2330;48.158;11.816;2023-03-01T16:32:58;5.60;98.50
4635;DHT22;2330;48.158;11.816;2023-03-01T16:35:25;5.50;98.50
4635;DHT22;2330;48.158;11.816;2023-03-01T16:37:52;5.40;98.50
4635;DHT22;2330;48.158;11.816;2023-03-01T16:40:27;5.40;98.50
4635;DHT22;2330;48.158;11.816;2023-03-01T16:42:55;5.30;98.50
4635;DHT22;2330;48.158;11.816;2023-03-01T16:45:33;5.20;98.50
4635;DHT22;2330;48.158;11.816;2023-03-01T16:48:03;5.20;98.50
4635;DHT22;2330;48.158;11.816;2023-03-01T16:50:30;5.10;98.50
4635;DHT22;2330;48.158;11.816;2023-03-01T16:52:57;5.00;98.50
4635;DHT22;2330;48.158;11.816;2023-03-01T16:55:23;5.00;98.50
4635;DHT22;2330;48.158;11.816;2023-03-01T16:57:50;4.90;98.50
4635;DHT22;2330;48.158;11.816;2023-03-01T17:00:17;4.80;98.50
4635;DHT22;2330;48.158;11.816;2023-03-01T17:02:44;4.80;98.50
4635;DHT22;2330;48.158;11.816;2023-03-01T17:05:12;4.70;98.50
4635;DHT22;2330;48.158;11.816;2023-03-01T17:07:39;4.60;98.50
4635;DHT22;2330;48.158;11.816;2023-03-01T17:10:09;4.60;98.50
4635;DHT22;2330;48.158;11.816;2023-03-01T17:12:36;4.60;98.50
4635;DHT22;2330;48.158;11.816;2023-03-01T17:15:04;4.50;98.50
4635;DHT22;2330;48.158;11.816;2023-03-01T17:17:32;4.50;98.50
4635;DHT22;2330;48.158;11.816;2023-03-01T17:19:59;4.50;98.50
4635;DHT22;2330;48.158;11.816;2023-03-01T17:22:26;4.40;98.50
4635;DHT22;2330;48.158;11.816;2023-03-01T17:24:53;4.40;98.50
4635;DHT22;2330;48.158;11.816;2023-03-01T17:27:20;4.40;98.50
4635;DHT22;2330;48.158;11.816;2023-03-01T17:29:48;4.40;98.50
4635;DHT22;2330;48.158;11.816;2023-03-01T17:32:15;4.40;98.50
4635;DHT22;2330;48.158;11.816;2023-03-01T17:34:42;4.40;98.50
4635;DHT22;2330;48.158;11.816;2023-03-01T17:37:09;4.20;98.50
4635;DHT22;2330;48.158;11.816;2023-03-01T17:39:35;4.10;98.50
4635;DHT22;2330;48.158;11.816;2023-03-01T17:42:04;4.00;98.50
4635;DHT22;2330;48.158;11.816;2023-03-01T17:44:32;3.90;98.50
4635;DHT22;2330;48.158;11.816;2023-03-01T17:47:03;3.70;98.50
4635;DHT22;2330;48.158;11.816;2023-03-01T17:49:30;3.60;98.50
4635;DHT22;2330;48.158;11.816;2023-03-01T17:51:57;3.50;98.50
4635;DHT22;2330;48.158;11.816;2023-03-01T17:54:24;3.40;98.50
4635;DHT22;2330;48.158;11.816;2023-03-01T17:56:52;3.20;98.50
4635;DHT22;2330;48.158;11.816;2023-03-01T17:59:18;3.10;98.50
4635;DHT22;2330;48.158;11.816;2023-03-01T18:01:45;3.00;98.50
4635;DHT22;2330;48.158;11.816;2023-03-01T18:04:12;3.00;98.50